sensor_id;sensor_type;location;lat;lon;timestamp;pressure;altitude;pressure_sealevel;temperature;humidity
43125;BME280;49182;50.788;7.318;2023-05-24T00:01:55;101534.81;;;7.48;83.37
43125;BME280;49182;50.788;7.318;2023-05-24T00:04:24;101536.81;;;7.45;83.34
43125;BME280;49182;50.788;7.318;2023-05-24T00:06:51;101531.63;;;7.43;82.45
43125;BME280;49182;50.788;7.318;2023-05-24T00:09:17;101544.28;;;7.37;82.45
43125;BME280;49182;50.788;7.318;2023-05-24T00:11:44;101547.34;;;7.29;83.14
43125;BME280;49182;50.788;7.318;2023-05-24T00:14:11;101556.28;;;7.26;83.08
43125;BME280;49182;50.788;7.318;2023-05-24T00:16:37;101546.06;;;7.22;82.75
43125;BME280;49182;50.788;7.318;2023-05-24T00:19:04;101553.44;;;7.15;83.04
43125;BME280;49182;50.788;7.318;2023-05-24T00:21:32;101552.84;;;7.10;83.20
43125;BME280;49182;50.788;7.318;2023-05-24T00:23:59;101517.63;;;6.84;83.36
43125;BME280;49182;50.788;7.318;2023-05-24T00:26:26;101536.72;;;6.86;84.03
43125;BME280;49182;50.788;7.318;2023-05-24T00:28:54;101567.72;;;6.96;84.06
43125;BME280;49182;50.788;7.318;2023-05-24T00:31:21;101544.09;;;6.80;83.73
43125;BME280;49182;50.788;7.318;2023-05-24T00:33:48;101530.75;;;6.69;83.82
43125;BME280;49182;50.788;7.318;2023-05-24T00:36:14;101566.53;;;6.85;83.99
43125;BME280;49182;50.788;7.318;2023-05-24T00:38:42;101558.91;;;6.81;83.18
43125;BME280;49182;50.788;7.318;2023-05-24T00:41:09;101557.69;;;6.72;83.28
43125;BME280;49182;50.788;7.318;2023-05-24T00:43:36;101573.31;;;6.74;82.76
43125;BME280;49182;50.788;7.318;2023-05-24T00:46:13;101577.06;;;6.70;82.97
43125;BME280;49182;50.788;7.318;2023-05-24T00:48:41;101569.44;;;6.65;83.15
43125;BME280;49182;50.788;7.318;2023-05-24T00:51:08;101571.50;;;6.60;83.28
43125;BME280;49182;50.788;7.318;2023-05-24T00:53:36;101567.31;;;6.56;83.22
43125;BME280;49182;50.788;7.318;2023-05-24T00:56:05;101564.03;;;6.53;83.57
43125;BME280;49182;50.788;7.318;2023-05-24T00:58:32;101567.59;;;6.52;84.60
43125;BME280;49182;50.788;7.318;2023-05-24T01:01:00;101520.22;;;6.23;84.80
43125;BME280;49182;50.788;7.318;2023-05-24T01:03:28;101558.53;;;6.41;85.04
43125;BME280;49182;50.788;7.318;2023-05-24T01:05:55;101566.31;;;6.43;85.54
43125;BME280;49182;50.788;7.318;2023-05-24T01:08:38;101567.41;;;6.39;85.90
43125;BME280;49182;50.788;7.318;2023-05-24T01:11:15;101565.78;;;6.36;85.88
43125;BME280;49182;50.788;7.318;2023-05-24T01:13:48;101566.97;;;6.31;85.79
43125;BME280;49182;50.788;7.318;2023-05-24T01:16:21;101555.38;;;6.19;85.63
43125;BME280;49182;50.788;7.318;2023-05-24T01:18:53;101567.91;;;6.14;85.42
43125;BME280;49182;50.788;7.318;2023-05-24T01:21:37;101568.22;;;6.08;85.99
43125;BME280;49182;50.788;7.318;2023-05-24T01:24:18;101563.25;;;6.03;85.94
43125;BME280;49182;50.788;7.318;2023-05-24T01:27:04;101561.09;;;5.94;85.78
43125;BME280;49182;50.788;7.318;2023-05-24T01:29:33;101553.56;;;5.88;85.84
43125;BME280;49182;50.788;7.318;2023-05-24T01:32:01;101569.88;;;5.93;85.98
43125;BME280;49182;50.788;7.318;2023-05-24T01:34:28;101567.56;;;5.87;86.60
43125;BME280;49182;50.788;7.318;2023-05-24T01:36:55;101565.34;;;5.80;87.35
43125;BME280;49182;50.788;7.318;2023-05-24T01:39:23;101540.88;;;5.63;86.96
43125;BME280;49182;50.788;7.318;2023-05-24T01:41:58;101545.50;;;5.58;86.80
43125;BME280;49182;50.788;7.318;2023-05-24T01:44:36;101545.75;;;5.54;86.81
43125;BME280;49182;50.788;7.318;2023-05-24T01:47:19;101551.97;;;5.51;86.89
43125;BME280;49182;50.788;7.318;2023-05-24T01:49:53;101560.69;;;5.52;86.85
43125;BME280;49182;50.788;7.318;2023-05-24T01:52:22;101555.84;;;5.44;87.36
43125;BME280;49182;50.788;7.318;2023-05-24T01:54:55;101551.00;;;5.37;86.86
43125;BME280;49182;50.788;7.318;2023-05-24T01:57:24;101557.38;;;5.31;86.92
43125;BME280;49182;50.788;7.318;2023-05-24T01:59:53;101551.69;;;5.23;86.95
43125;BME280;49182;50.788;7.318;2023-05-24T02:02:20;101553.53;;;5.21;86.29
43125;BME280;49182;50.788;7.318;2023-05-24T02:04:48;101562.53;;;5.15;86.71
43125;BME280;49182;50.788;7.318;2023-05-24T02:07:15;101550.75;;;5.07;87.28
43125;BME280;49182;50.788;7.318;2023-05-24T02:09:42;101555.91;;;5.08;87.49
43125;BME280;49182;50.788;7.318;2023-05-24T02:12:10;101550.75;;;5.07;87.55
43125;BME280;49182;50.788;7.318;2023-05-24T02:14:38;101550.19;;;5.00;87.82
43125;BME280;49182;50.788;7.318;2023-05-24T02:17:06;101560.00;;;4.97;87.65
43125;BME280;49182;50.788;7.318;2023-05-24T02:19:34;101556.81;;;4.90;87.27
43125;BME280;49182;50.788;7.318;2023-05-24T02:22:00;101550.91;;;4.86;87.68
43125;BME280;49182;50.788;7.318;2023-05-24T02:24:29;101547.50;;;4.84;88.07
43125;BME280;49182;50.788;7.318;2023-05-24T02:26:55;101552.06;;;4.81;87.74
43125;BME280;49182;50.788;7.318;2023-05-24T02:29:22;101550.50;;;4.77;88.40
43125;BME280;49182;50.788;7.318;2023-05-24T02:31:49;101551.63;;;4.71;88.41
43125;BME280;49182;50.788;7.318;2023-05-24T02:34:17;101555.34;;;4.67;88.64
43125;BME280;49182;50.788;7.318;2023-05-24T02:36:44;101557.16;;;4.65;88.62
43125;BME280;49182;50.788;7.318;2023-05-24T02:39:10;101552.94;;;4.63;88.93
43125;BME280;49182;50.788;7.318;2023-05-24T02:41:37;101554.91;;;4.58;89.31
43125;BME280;49182;50.788;7.318;2023-05-24T02:44:04;101551.59;;;4.54;89.10
43125;BME280;49182;50.788;7.318;2023-05-24T02:46:30;101544.84;;;4.50;88.98
43125;BME280;49182;50.788;7.318;2023-05-24T02:48:58;101550.25;;;4.45;89.38
43125;BME280;49182;50.788;7.318;2023-05-24T02:51:26;101555.59;;;4.44;89.30
43125;BME280;49182;50.788;7.318;2023-05-24T02:53:52;101554.84;;;4.40;89.57
43125;BME280;49182;50.788;7.318;2023-05-24T02:56:19;101541.94;;;4.37;89.54
43125;BME280;49182;50.788;7.318;2023-05-24T02:58:46;101549.91;;;4.34;89.97
43125;BME280;49182;50.788;7.318;2023-05-24T03:01:13;101538.66;;;4.32;90.54
43125;BME280;49182;50.788;7.318;2023-05-24T03:03:40;101548.94;;;4.37;90.72
43125;BME280;49182;50.788;7.318;2023-05-24T03:06:07;101547.38;;;4.33;90.37
43125;BME280;49182;50.788;7.318;2023-05-24T03:08:35;101549.97;;;4.33;90.84
43125;BME280;49182;50.788;7.318;2023-05-24T03:11:02;101546.81;;;4.26;90.46
43125;BME280;49182;50.788;7.318;2023-05-24T03:13:28;101543.50;;;4.23;90.54
43125;BME280;49182;50.788;7.318;2023-05-24T03:15:55;101541.00;;;4.20;90.87
43125;BME280;49182;50.788;7.318;2023-05-24T03:18:22;101532.47;;;4.16;90.70
43125;BME280;49182;50.788;7.318;2023-05-24T03:20:50;101530.09;;;4.12;90.17
43125;BME280;49182;50.788;7.318;2023-05-24T03:23:17;101530.22;;;4.08;90.24
43125;BME280;49182;50.788;7.318;2023-05-24T03:25:45;101541.50;;;4.09;90.57
43125;BME280;49182;50.788;7.318;2023-05-24T03:28:12;101545.13;;;4.06;90.65
43125;BME280;49182;50.788;7.318;2023-05-24T03:30:39;101506.13;;;3.83;90.50
43125;BME280;49182;50.788;7.318;2023-05-24T03:33:06;101545.75;;;4.12;89.97
43125;BME280;49182;50.788;7.318;2023-05-24T03:35:33;101540.81;;;4.05;90.31
43125;BME280;49182;50.788;7.318;2023-05-24T03:38:00;101541.09;;;3.99;89.81
43125;BME280;49182;50.788;7.318;2023-05-24T03:40:28;101534.66;;;3.88;89.98
43125;BME280;49182;50.788;7.318;2023-05-24T03:42:58;101548.41;;;3.91;90.31
43125;BME280;49182;50.788;7.318;2023-05-24T03:45:48;101551.09;;;3.90;90.36
43125;BME280;49182;50.788;7.318;2023-05-24T03:48:15;101549.28;;;3.92;90.41
43125;BME280;49182;50.788;7.318;2023-05-24T03:50:42;101557.91;;;3.94;90.37
43125;BME280;49182;50.788;7.318;2023-05-24T03:53:10;101535.84;;;3.81;90.67
43125;BME280;49182;50.788;7.318;2023-05-24T03:55:37;101550.25;;;3.89;90.69
43125;BME280;49182;50.788;7.318;2023-05-24T03:58:05;101558.09;;;3.89;90.31
43125;BME280;49182;50.788;7.318;2023-05-24T04:00:32;101548.75;;;3.84;90.32
43125;BME280;49182;50.788;7.318;2023-05-24T04:03:00;101554.50;;;3.92;90.77
43125;BME280;49182;50.788;7.318;2023-05-24T04:05:28;101559.72;;;3.92;90.67
43125;BME280;49182;50.788;7.318;2023-05-24T04:07:55;101565.66;;;3.95;90.62
43125;BME280;49182;50.788;7.318;2023-05-24T04:10:21;101569.91;;;3.98;90.55
43125;BME280;49182;50.788;7.318;2023-05-24T04:12:48;101566.38;;;3.99;90.63
43125;BME280;49182;50.788;7.318;2023-05-24T04:15:16;101546.59;;;3.93;90.51
43125;BME280;49182;50.788;7.318;2023-05-24T04:17:45;101549.78;;;4.00;90.67
43125;BME280;49182;50.788;7.318;2023-05-24T04:20:12;101549.56;;;4.23;91.10
43125;BME280;49182;50.788;7.318;2023-05-24T04:22:39;101579.84;;;4.65;90.89
43125;BME280;49182;50.788;7.318;2023-05-24T04:25:07;101573.31;;;4.92;90.25
43125;BME280;49182;50.788;7.318;2023-05-24T04:27:33;101584.03;;;5.22;89.21
43125;BME280;49182;50.788;7.318;2023-05-24T04:30:00;101578.47;;;5.45;87.62
43125;BME280;49182;50.788;7.318;2023-05-24T04:32:28;101586.53;;;5.75;86.53
43125;BME280;49182;50.788;7.318;2023-05-24T04:34:55;101586.13;;;6.00;85.71
43125;BME280;49182;50.788;7.318;2023-05-24T04:37:22;101588.22;;;6.26;85.97
43125;BME280;49182;50.788;7.318;2023-05-24T04:39:49;101570.81;;;6.41;84.43
43125;BME280;49182;50.788;7.318;2023-05-24T04:42:15;101591.59;;;6.75;82.98
43125;BME280;49182;50.788;7.318;2023-05-24T04:44:42;101596.16;;;6.87;82.13
43125;BME280;49182;50.788;7.318;2023-05-24T04:47:08;101588.03;;;6.92;80.92
43125;BME280;49182;50.788;7.318;2023-05-24T04:49:36;101600.22;;;6.93;79.81
43125;BME280;49182;50.788;7.318;2023-05-24T04:52:03;101596.09;;;6.89;80.19
43125;BME280;49182;50.788;7.318;2023-05-24T04:54:30;101595.25;;;6.88;80.60
43125;BME280;49182;50.788;7.318;2023-05-24T04:56:57;101589.22;;;6.86;80.14
43125;BME280;49182;50.788;7.318;2023-05-24T04:59:24;101593.03;;;6.81;81.11
43125;BME280;49182;50.788;7.318;2023-05-24T05:01:51;101605.81;;;6.87;80.37
43125;BME280;49182;50.788;7.318;2023-05-24T05:04:17;101602.47;;;6.85;80.43
43125;BME280;49182;50.788;7.318;2023-05-24T05:06:45;101610.41;;;6.83;81.15
43125;BME280;49182;50.788;7.318;2023-05-24T05:09:12;101615.81;;;6.80;81.64
43125;BME280;49182;50.788;7.318;2023-05-24T05:11:39;101619.63;;;6.75;81.92
43125;BME280;49182;50.788;7.318;2023-05-24T05:14:06;101623.09;;;6.75;80.87
43125;BME280;49182;50.788;7.318;2023-05-24T05:16:33;101622.78;;;6.66;81.69
43125;BME280;49182;50.788;7.318;2023-05-24T05:19:00;101623.13;;;6.60;82.06
43125;BME280;49182;50.788;7.318;2023-05-24T05:21:26;101634.78;;;6.54;82.68
43125;BME280;49182;50.788;7.318;2023-05-24T05:23:54;101635.72;;;6.53;83.14
43125;BME280;49182;50.788;7.318;2023-05-24T05:26:21;101621.91;;;6.49;83.14
43125;BME280;49182;50.788;7.318;2023-05-24T05:28:47;101623.25;;;6.57;83.37
43125;BME280;49182;50.788;7.318;2023-05-24T05:31:14;101628.50;;;6.57;83.65
43125;BME280;49182;50.788;7.318;2023-05-24T05:33:41;101630.03;;;6.61;83.63
43125;BME280;49182;50.788;7.318;2023-05-24T05:36:07;101628.09;;;6.64;83.54
43125;BME280;49182;50.788;7.318;2023-05-24T05:38:34;101637.69;;;6.65;83.83
43125;BME280;49182;50.788;7.318;2023-05-24T05:41:02;101638.19;;;6.72;84.32
43125;BME280;49182;50.788;7.318;2023-05-24T05:43:30;101638.69;;;6.78;83.72
43125;BME280;49182;50.788;7.318;2023-05-24T05:45:56;101617.00;;;6.75;84.95
43125;BME280;49182;50.788;7.318;2023-05-24T05:48:24;101627.25;;;6.95;84.49
43125;BME280;49182;50.788;7.318;2023-05-24T05:50:51;101621.47;;;7.04;84.65
43125;BME280;49182;50.788;7.318;2023-05-24T05:53:17;101627.41;;;7.08;84.61
43125;BME280;49182;50.788;7.318;2023-05-24T05:55:44;101622.72;;;7.13;84.79
43125;BME280;49182;50.788;7.318;2023-05-24T05:58:12;101627.38;;;7.23;84.75
43125;BME280;49182;50.788;7.318;2023-05-24T06:00:39;101629.78;;;7.42;84.98
43125;BME280;49182;50.788;7.318;2023-05-24T06:03:06;101630.59;;;7.58;84.79
43125;BME280;49182;50.788;7.318;2023-05-24T06:05:33;101633.91;;;7.76;84.84
43125;BME280;49182;50.788;7.318;2023-05-24T06:07:59;101641.72;;;7.92;84.15
43125;BME280;49182;50.788;7.318;2023-05-24T06:10:26;101625.09;;;8.05;83.83
43125;BME280;49182;50.788;7.318;2023-05-24T06:12:52;101605.56;;;8.09;82.92
43125;BME280;49182;50.788;7.318;2023-05-24T06:15:20;101612.94;;;8.33;82.57
43125;BME280;49182;50.788;7.318;2023-05-24T06:17:47;101603.44;;;8.44;81.72
43125;BME280;49182;50.788;7.318;2023-05-24T06:20:14;101590.72;;;8.51;81.51
43125;BME280;49182;50.788;7.318;2023-05-24T06:22:41;101594.53;;;8.74;82.05
43125;BME280;49182;50.788;7.318;2023-05-24T06:25:08;101584.69;;;8.90;81.92
43125;BME280;49182;50.788;7.318;2023-05-24T06:27:35;101592.63;;;9.03;80.34
43125;BME280;49182;50.788;7.318;2023-05-24T06:30:02;101577.56;;;9.05;80.67
43125;BME280;49182;50.788;7.318;2023-05-24T06:32:30;101578.16;;;9.22;79.97
43125;BME280;49182;50.788;7.318;2023-05-24T06:34:56;101571.44;;;9.44;79.37
43125;BME280;49182;50.788;7.318;2023-05-24T06:37:23;101579.25;;;9.58;78.97
43125;BME280;49182;50.788;7.318;2023-05-24T06:39:50;101577.69;;;9.81;78.29
43125;BME280;49182;50.788;7.318;2023-05-24T06:42:17;101587.50;;;10.04;78.33
43125;BME280;49182;50.788;7.318;2023-05-24T06:44:45;101595.50;;;10.28;76.72
43125;BME280;49182;50.788;7.318;2023-05-24T06:47:11;101579.66;;;10.40;74.12
43125;BME280;49182;50.788;7.318;2023-05-24T06:49:39;101602.19;;;10.57;74.27
43125;BME280;49182;50.788;7.318;2023-05-24T06:52:06;101603.97;;;10.69;71.53
43125;BME280;49182;50.788;7.318;2023-05-24T06:54:33;101605.75;;;10.69;71.68
43125;BME280;49182;50.788;7.318;2023-05-24T06:56:59;101600.78;;;10.77;72.02
43125;BME280;49182;50.788;7.318;2023-05-24T06:59:26;101605.50;;;10.84;69.24
43125;BME280;49182;50.788;7.318;2023-05-24T07:01:52;101608.75;;;10.88;68.32
43125;BME280;49182;50.788;7.318;2023-05-24T07:04:19;101607.91;;;10.87;68.97
43125;BME280;49182;50.788;7.318;2023-05-24T07:06:47;101603.41;;;11.01;69.10
43125;BME280;49182;50.788;7.318;2023-05-24T07:09:14;101605.94;;;11.26;66.78
43125;BME280;49182;50.788;7.318;2023-05-24T07:11:40;101609.91;;;11.31;66.94
43125;BME280;49182;50.788;7.318;2023-05-24T07:14:07;101606.34;;;11.44;67.00
43125;BME280;49182;50.788;7.318;2023-05-24T07:16:34;101616.16;;;11.65;65.93
43125;BME280;49182;50.788;7.318;2023-05-24T07:19:01;101618.75;;;11.78;65.27
43125;BME280;49182;50.788;7.318;2023-05-24T07:21:30;101626.34;;;11.94;63.93
43125;BME280;49182;50.788;7.318;2023-05-24T07:23:58;101627.56;;;11.90;63.18
43125;BME280;49182;50.788;7.318;2023-05-24T07:26:25;101626.81;;;11.88;61.11
43125;BME280;49182;50.788;7.318;2023-05-24T07:28:51;101633.13;;;12.09;62.53
43125;BME280;49182;50.788;7.318;2023-05-24T07:31:18;101623.38;;;12.32;61.00
43125;BME280;49182;50.788;7.318;2023-05-24T07:33:44;101625.53;;;12.38;61.40
43125;BME280;49182;50.788;7.318;2023-05-24T07:36:11;101626.47;;;12.59;61.24
43125;BME280;49182;50.788;7.318;2023-05-24T07:38:38;101609.97;;;12.67;58.31
43125;BME280;49182;50.788;7.318;2023-05-24T07:41:06;101622.50;;;12.76;57.26
43125;BME280;49182;50.788;7.318;2023-05-24T07:43:32;101635.94;;;12.84;56.82
43125;BME280;49182;50.788;7.318;2023-05-24T07:45:59;101618.88;;;12.77;57.73
43125;BME280;49182;50.788;7.318;2023-05-24T07:48:26;101625.91;;;12.98;59.17
43125;BME280;49182;50.788;7.318;2023-05-24T07:50:52;101617.59;;;13.14;57.82
43125;BME280;49182;50.788;7.318;2023-05-24T07:53:19;101622.69;;;13.27;57.15
43125;BME280;49182;50.788;7.318;2023-05-24T07:55:46;101630.31;;;13.52;54.87
43125;BME280;49182;50.788;7.318;2023-05-24T07:58:14;101620.75;;;13.61;55.31
43125;BME280;49182;50.788;7.318;2023-05-24T08:00:40;101610.84;;;13.63;54.20
43125;BME280;49182;50.788;7.318;2023-05-24T08:03:07;101617.56;;;13.67;52.76
43125;BME280;49182;50.788;7.318;2023-05-24T08:05:34;101620.69;;;13.72;52.49
43125;BME280;49182;50.788;7.318;2023-05-24T08:08:01;101598.66;;;13.40;50.71
43125;BME280;49182;50.788;7.318;2023-05-24T08:10:27;101613.03;;;13.37;52.08
43125;BME280;49182;50.788;7.318;2023-05-24T08:12:54;101617.09;;;13.20;52.88
43125;BME280;49182;50.788;7.318;2023-05-24T08:15:23;101610.78;;;13.32;53.71
43125;BME280;49182;50.788;7.318;2023-05-24T08:17:50;101616.25;;;13.41;53.77
43125;BME280;49182;50.788;7.318;2023-05-24T08:20:16;101610.00;;;13.42;54.21
43125;BME280;49182;50.788;7.318;2023-05-24T08:22:43;101619.44;;;13.55;53.33
43125;BME280;49182;50.788;7.318;2023-05-24T08:25:10;101621.59;;;13.61;53.42
43125;BME280;49182;50.788;7.318;2023-05-24T08:27:36;101614.19;;;13.65;53.39
43125;BME280;49182;50.788;7.318;2023-05-24T08:30:04;101619.97;;;13.70;52.64
43125;BME280;49182;50.788;7.318;2023-05-24T08:32:32;101627.28;;;13.77;52.08
43125;BME280;49182;50.788;7.318;2023-05-24T08:34:59;101624.97;;;13.63;52.03
43125;BME280;49182;50.788;7.318;2023-05-24T08:37:44;101614.84;;;13.78;52.82
43125;BME280;49182;50.788;7.318;2023-05-24T08:40:11;101618.75;;;13.95;52.70
43125;BME280;49182;50.788;7.318;2023-05-24T08:42:38;101628.97;;;13.99;52.01
43125;BME280;49182;50.788;7.318;2023-05-24T08:45:08;101618.25;;;14.10;51.37
43125;BME280;49182;50.788;7.318;2023-05-24T08:47:37;101623.88;;;14.17;51.52
43125;BME280;49182;50.788;7.318;2023-05-24T08:50:05;101624.31;;;14.22;51.59
43125;BME280;49182;50.788;7.318;2023-05-24T08:52:32;101618.56;;;14.17;50.27
43125;BME280;49182;50.788;7.318;2023-05-24T08:55:00;101619.75;;;14.34;48.72
43125;BME280;49182;50.788;7.318;2023-05-24T08:57:27;101613.94;;;14.40;48.54
43125;BME280;49182;50.788;7.318;2023-05-24T08:59:54;101616.78;;;14.27;48.61
43125;BME280;49182;50.788;7.318;2023-05-24T09:02:21;101595.22;;;14.21;49.18
43125;BME280;49182;50.788;7.318;2023-05-24T09:04:51;101575.63;;;14.42;47.54
43125;BME280;49182;50.788;7.318;2023-05-24T09:07:20;101597.22;;;14.28;48.46
43125;BME280;49182;50.788;7.318;2023-05-24T09:09:53;101591.72;;;14.50;49.19
43125;BME280;49182;50.788;7.318;2023-05-24T09:12:23;101593.19;;;14.74;47.10
43125;BME280;49182;50.788;7.318;2023-05-24T09:15:04;101573.06;;;14.81;47.39
43125;BME280;49182;50.788;7.318;2023-05-24T09:17:32;101585.41;;;15.11;46.14
43125;BME280;49182;50.788;7.318;2023-05-24T09:20:01;101580.19;;;15.19;45.30
43125;BME280;49182;50.788;7.318;2023-05-24T09:22:27;101589.84;;;15.01;45.41
43125;BME280;49182;50.788;7.318;2023-05-24T09:24:57;101581.03;;;15.00;45.85
43125;BME280;49182;50.788;7.318;2023-05-24T09:27:25;101598.13;;;15.26;46.37
43125;BME280;49182;50.788;7.318;2023-05-24T09:29:54;101592.09;;;15.34;45.89
43125;BME280;49182;50.788;7.318;2023-05-24T09:32:21;101595.59;;;15.44;44.92
43125;BME280;49182;50.788;7.318;2023-05-24T09:34:52;101599.78;;;15.37;45.99
43125;BME280;49182;50.788;7.318;2023-05-24T09:37:22;101610.75;;;15.24;46.06
43125;BME280;49182;50.788;7.318;2023-05-24T09:39:55;101609.91;;;15.24;46.08
43125;BME280;49182;50.788;7.318;2023-05-24T09:42:23;101593.22;;;15.41;46.06
43125;BME280;49182;50.788;7.318;2023-05-24T09:44:57;101594.75;;;15.34;47.21
43125;BME280;49182;50.788;7.318;2023-05-24T09:47:27;101593.78;;;15.25;47.53
43125;BME280;49182;50.788;7.318;2023-05-24T09:49:54;101588.19;;;15.48;46.73
43125;BME280;49182;50.788;7.318;2023-05-24T09:52:22;101591.41;;;15.61;47.17
43125;BME280;49182;50.788;7.318;2023-05-24T09:54:49;101579.19;;;15.68;46.97
43125;BME280;49182;50.788;7.318;2023-05-24T09:57:16;101577.22;;;15.80;45.99
43125;BME280;49182;50.788;7.318;2023-05-24T09:59:43;101568.88;;;16.02;46.32
43125;BME280;49182;50.788;7.318;2023-05-24T10:02:10;101563.41;;;16.31;46.01
43125;BME280;49182;50.788;7.318;2023-05-24T10:04:37;101556.38;;;16.57;46.11
43125;BME280;49182;50.788;7.318;2023-05-24T10:07:04;101557.88;;;16.87;41.23
43125;BME280;49182;50.788;7.318;2023-05-24T10:09:33;101557.50;;;16.82;42.99
43125;BME280;49182;50.788;7.318;2023-05-24T10:12:04;101549.44;;;16.46;41.28
43125;BME280;49182;50.788;7.318;2023-05-24T10:14:33;101562.69;;;16.66;42.72
43125;BME280;49182;50.788;7.318;2023-05-24T10:17:00;101563.94;;;16.62;43.31
43125;BME280;49182;50.788;7.318;2023-05-24T10:19:27;101565.19;;;16.67;42.16
43125;BME280;49182;50.788;7.318;2023-05-24T10:21:55;101568.91;;;16.29;43.46
43125;BME280;49182;50.788;7.318;2023-05-24T10:24:23;101563.75;;;16.45;43.37
43125;BME280;49182;50.788;7.318;2023-05-24T10:26:53;101567.47;;;16.62;42.00
43125;BME280;49182;50.788;7.318;2023-05-24T10:29:28;101561.22;;;16.44;43.47
43125;BME280;49182;50.788;7.318;2023-05-24T10:31:59;101575.75;;;16.59;44.06
43125;BME280;49182;50.788;7.318;2023-05-24T10:34:26;101574.72;;;16.70;44.61
43125;BME280;49182;50.788;7.318;2023-05-24T10:36:53;101560.69;;;16.68;44.42
43125;BME280;49182;50.788;7.318;2023-05-24T10:39:23;101570.31;;;16.78;44.34
43125;BME280;49182;50.788;7.318;2023-05-24T10:41:55;101572.16;;;16.78;44.69
43125;BME280;49182;50.788;7.318;2023-05-24T10:44:27;101555.34;;;16.68;43.43
43125;BME280;49182;50.788;7.318;2023-05-24T10:47:01;101572.38;;;16.84;43.44
43125;BME280;49182;50.788;7.318;2023-05-24T10:49:28;101577.47;;;16.50;43.06
43125;BME280;49182;50.788;7.318;2023-05-24T10:52:00;101574.81;;;16.50;43.86
43125;BME280;49182;50.788;7.318;2023-05-24T10:54:27;101575.88;;;16.57;43.61
43125;BME280;49182;50.788;7.318;2023-05-24T10:56:59;101577.03;;;16.82;43.58
43125;BME280;49182;50.788;7.318;2023-05-24T10:59:28;101573.00;;;16.78;43.09
43125;BME280;49182;50.788;7.318;2023-05-24T11:01:56;101573.00;;;16.96;43.94
43125;BME280;49182;50.788;7.318;2023-05-24T11:04:23;101568.25;;;17.08;42.58
43125;BME280;49182;50.788;7.318;2023-05-24T11:06:54;101562.84;;;17.17;41.61
43125;BME280;49182;50.788;7.318;2023-05-24T11:09:21;101554.78;;;17.09;41.38
43125;BME280;49182;50.788;7.318;2023-05-24T11:11:50;101560.78;;;17.11;42.36
43125;BME280;49182;50.788;7.318;2023-05-24T11:14:22;101555.91;;;17.07;41.81
43125;BME280;49182;50.788;7.318;2023-05-24T11:16:49;101547.16;;;17.14;42.23
43125;BME280;49182;50.788;7.318;2023-05-24T11:19:17;101549.63;;;17.33;41.76
43125;BME280;49182;50.788;7.318;2023-05-24T11:21:45;101539.72;;;17.26;42.10
43125;BME280;49182;50.788;7.318;2023-05-24T11:24:12;101540.28;;;17.12;42.11
43125;BME280;49182;50.788;7.318;2023-05-24T11:26:39;101538.88;;;17.25;42.00
43125;BME280;49182;50.788;7.318;2023-05-24T11:29:06;101541.63;;;17.33;42.39
43125;BME280;49182;50.788;7.318;2023-05-24T11:31:34;101538.97;;;17.33;41.97
43125;BME280;49182;50.788;7.318;2023-05-24T11:34:08;101544.09;;;17.53;42.17
43125;BME280;49182;50.788;7.318;2023-05-24T11:36:35;101539.75;;;17.77;41.30
43125;BME280;49182;50.788;7.318;2023-05-24T11:39:06;101544.84;;;17.89;40.69
43125;BME280;49182;50.788;7.318;2023-05-24T11:41:36;101550.16;;;18.14;39.46
43125;BME280;49182;50.788;7.318;2023-05-24T11:44:03;101538.06;;;18.02;39.67
43125;BME280;49182;50.788;7.318;2023-05-24T11:46:30;101531.00;;;17.93;39.38
43125;BME280;49182;50.788;7.318;2023-05-24T11:48:59;101525.19;;;17.72;40.03
43125;BME280;49182;50.788;7.318;2023-05-24T11:51:26;101524.94;;;17.57;41.00
43125;BME280;49182;50.788;7.318;2023-05-24T11:53:53;101532.44;;;17.36;41.69
43125;BME280;49182;50.788;7.318;2023-05-24T11:56:20;101528.25;;;17.08;41.46
43125;BME280;49182;50.788;7.318;2023-05-24T11:58:48;101537.16;;;16.98;40.73
43125;BME280;49182;50.788;7.318;2023-05-24T12:01:25;101546.94;;;16.90;41.94
43125;BME280;49182;50.788;7.318;2023-05-24T12:03:52;101541.88;;;16.87;42.39
43125;BME280;49182;50.788;7.318;2023-05-24T12:06:21;101549.75;;;16.88;42.20
43125;BME280;49182;50.788;7.318;2023-05-24T12:08:47;101549.88;;;16.87;42.05
43125;BME280;49182;50.788;7.318;2023-05-24T12:11:16;101543.88;;;16.85;42.21
43125;BME280;49182;50.788;7.318;2023-05-24T12:13:43;101549.28;;;16.75;42.18
43125;BME280;49182;50.788;7.318;2023-05-24T12:16:10;101527.75;;;16.59;43.56
43125;BME280;49182;50.788;7.318;2023-05-24T12:18:37;101549.19;;;16.67;43.04
43125;BME280;49182;50.788;7.318;2023-05-24T12:21:11;101544.03;;;16.66;43.27
43125;BME280;49182;50.788;7.318;2023-05-24T12:23:39;101553.06;;;16.73;43.74
43125;BME280;49182;50.788;7.318;2023-05-24T12:26:06;101553.72;;;16.84;44.07
43125;BME280;49182;50.788;7.318;2023-05-24T12:28:32;101559.94;;;16.93;42.97
43125;BME280;49182;50.788;7.318;2023-05-24T12:30:59;101560.03;;;16.83;41.87
43125;BME280;49182;50.788;7.318;2023-05-24T12:33:26;101555.38;;;16.85;41.67
43125;BME280;49182;50.788;7.318;2023-05-24T12:35:53;101557.38;;;16.83;42.67
43125;BME280;49182;50.788;7.318;2023-05-24T12:38:20;101537.72;;;16.84;43.13
43125;BME280;49182;50.788;7.318;2023-05-24T12:40:48;101544.31;;;16.98;42.19
43125;BME280;49182;50.788;7.318;2023-05-24T12:43:33;101549.25;;;17.11;41.75
43125;BME280;49182;50.788;7.318;2023-05-24T12:46:00;101550.94;;;17.12;41.13
43125;BME280;49182;50.788;7.318;2023-05-24T12:48:26;101542.66;;;16.97;42.56
43125;BME280;49182;50.788;7.318;2023-05-24T12:50:54;101544.50;;;16.96;41.94
43125;BME280;49182;50.788;7.318;2023-05-24T12:53:20;101546.31;;;16.78;42.61
43125;BME280;49182;50.788;7.318;2023-05-24T12:55:48;101543.69;;;16.86;41.43
43125;BME280;49182;50.788;7.318;2023-05-24T12:58:15;101552.63;;;16.95;42.07
43125;BME280;49182;50.788;7.318;2023-05-24T13:00:41;101551.47;;;16.97;42.41